createdAt,value
2022-12-25T00:04:01.514Z,11.93
2022-12-25T00:14:09.249Z,10.84
2022-12-25T00:24:17.216Z,13.68
2022-12-25T00:34:25.011Z,10.64
2022-12-25T00:44:32.974Z,10.35
2022-12-25T00:54:41.113Z,11.71
2022-12-25T01:04:50.707Z,12.38
2022-12-25T01:14:58.627Z,12.13
2022-12-25T01:25:06.491Z,11.4
2022-12-25T01:35:14.485Z,11.89
2022-12-25T01:45:22.659Z,9.72
2022-12-25T01:55:30.589Z,11.57
2022-12-25T02:05:38.507Z,10.29
2022-12-25T02:15:46.347Z,9.19
2022-12-25T02:25:54.387Z,10.21
2022-12-25T02:45:56.871Z,9.72
2022-12-25T02:56:04.692Z,10.84
2022-12-25T03:06:12.672Z,10.98
2022-12-25T03:16:20.551Z,7.93
2022-12-25T03:26:28.471Z,6.24
2022-12-25T03:36:36.241Z,7.5
2022-12-25T03:46:44.109Z,6.52
2022-12-25T03:56:51.930Z,8.28
2022-12-25T04:06:59.653Z,9.82
2022-12-25T04:17:07.473Z,7.83
2022-12-25T04:27:15.428Z,7.72
2022-12-25T04:37:23.183Z,8.02
2022-12-25T04:47:31.070Z,8.22
2022-12-25T04:57:38.933Z,6.74
2022-12-25T05:07:46.839Z,6.39
2022-12-25T05:17:54.584Z,7.45
2022-12-25T05:28:02.476Z,8.62
2022-12-25T05:38:10.471Z,8.93
2022-12-25T05:48:18.415Z,7.76
2022-12-25T05:58:26.317Z,6.5
2022-12-25T06:08:34.149Z,6.47
2022-12-25T06:18:42.012Z,6.71
2022-12-25T06:28:49.861Z,6.68
2022-12-25T06:38:57.710Z,6.06
2022-12-25T06:49:05.512Z,6.45
2022-12-25T06:59:13.315Z,5
2022-12-25T07:09:21.167Z,5.84
2022-12-25T07:19:28.854Z,5.01
2022-12-25T07:29:36.940Z,5.64
2022-12-25T07:39:44.693Z,6.07
2022-12-25T07:49:52.534Z,6
2022-12-25T08:00:00.405Z,5.82
2022-12-25T08:10:08.512Z,7.83
2022-12-25T08:20:18.304Z,7.48
2022-12-25T08:30:26.665Z,13.89
2022-12-25T08:40:34.655Z,19.85
2022-12-25T08:50:42.605Z,20.8
2022-12-25T09:00:54.404Z,12.76
2022-12-25T09:11:04.134Z,9.93
2022-12-25T09:21:05.720Z,8.21
2022-12-25T09:31:06.477Z,8.34
2022-12-25T09:41:12.226Z,12.36
2022-12-25T09:51:12.699Z,9.19
2022-12-25T10:01:22.119Z,6.46
2022-12-25T10:11:30.028Z,6.48
2022-12-25T10:21:41.188Z,6.72
2022-12-25T10:31:39.296Z,6.04
2022-12-25T10:41:47.905Z,5.4
2022-12-25T10:51:58.691Z,7.4
2022-12-25T11:01:56.296Z,4.78
2022-12-25T11:12:04.797Z,7.06
2022-12-25T11:22:29.366Z,5.09
2022-12-25T11:32:22.437Z,5.39
2022-12-25T11:42:30.505Z,7.04
2022-12-25T11:52:34.432Z,11.22
2022-12-25T12:02:32.536Z,9.38
2022-12-25T12:12:46.777Z,10.64
2022-12-25T12:22:47.792Z,10.14
2022-12-25T12:32:58.536Z,8.32
2022-12-25T12:42:57.681Z,10.42
2022-12-25T12:53:05.931Z,10.14
2022-12-25T13:03:14.255Z,11.22
2022-12-25T13:13:22.383Z,8.64
2022-12-25T13:23:30.807Z,9.68
2022-12-25T13:33:39.281Z,10.81
2022-12-25T13:43:47.519Z,10.48
2022-12-25T13:53:56.972Z,8.77
2022-12-25T14:04:05.574Z,8.55
2022-12-25T14:14:13.735Z,8.99
2022-12-25T14:24:24.104Z,7.92
2022-12-25T14:34:22.257Z,8.46
2022-12-25T14:44:31.554Z,8.47
2022-12-25T14:54:32.435Z,8.88
2022-12-25T15:04:40.808Z,9.65
2022-12-25T15:14:49.020Z,9.32
2022-12-25T15:25:02.398Z,11.8
2022-12-25T15:35:07.880Z,13.71
2022-12-25T15:45:15.944Z,14.03
2022-12-25T15:55:24.041Z,13.18
2022-12-25T16:05:33.362Z,12.32
2022-12-25T16:15:42.844Z,14.71
2022-12-25T16:25:51.031Z,19.65
2022-12-25T16:35:59.576Z,14.48
2022-12-25T16:46:07.090Z,15.31
2022-12-25T16:56:15.521Z,19.57
2022-12-25T17:16:26.321Z,20.96
2022-12-25T17:26:28.730Z,23.55
2022-12-25T17:36:38.990Z,24.04
2022-12-25T17:46:47.095Z,25.55
2022-12-25T17:56:59.177Z,23.76
2022-12-25T18:06:56.357Z,25.23
2022-12-25T18:17:06.104Z,74.61
2022-12-25T18:27:14.745Z,24.25
2022-12-25T18:37:23.470Z,26.05
2022-12-25T18:47:33.942Z,36.57
2022-12-25T18:57:32.524Z,26.64
2022-12-25T19:07:44.038Z,25.67
2022-12-25T19:17:43.697Z,21.2
2022-12-25T19:27:42.889Z,15.28
2022-12-25T19:37:51.874Z,18.06
2022-12-25T19:48:05.295Z,17.68
2022-12-25T19:58:08.730Z,12.69
2022-12-25T20:08:09.283Z,22.16
2022-12-25T20:28:26.229Z,15.09
2022-12-25T20:38:24.364Z,17.11
2022-12-25T20:48:33.143Z,15.2
2022-12-25T20:58:45.305Z,14.19
2022-12-25T21:09:10.915Z,13.21
2022-12-25T21:18:59.082Z,18.44
2022-12-25T21:28:57.693Z,17.41
2022-12-25T21:39:06.923Z,14.88
2022-12-25T21:49:10.697Z,13.31
2022-12-25T21:59:30.430Z,12.79
2022-12-25T22:09:25.750Z,17.77
2022-12-25T22:19:26.254Z,14.93
2022-12-25T22:29:24.695Z,12.18
2022-12-25T22:39:34.730Z,12.45
2022-12-25T22:49:33.040Z,13.02
2022-12-25T22:59:41.227Z,12.51
2022-12-25T23:09:50.232Z,12.56
2022-12-25T23:19:58.134Z,13.42
2022-12-25T23:30:06.075Z,13.65
2022-12-25T23:40:14.010Z,13.16
2022-12-25T23:50:21.856Z,12.4
